Flatruet, Sweden

11:19 AM CET on February 11, 2016 (GMT +0100)
Roros | | Change Station
CLOSE
Current Station
Airport
Location: Roros Lufthavn,
Elevation: 2054 ft
Nearby Weather Stations

Elev 2054 ft 62.58 °N, 11.34 °E | Updated 29 minutes ago

Mostly Cloudy
Mostly Cloudy
25 °F
Feels Like 11 °F
N
20
Wind Variable Wind from NNW

Today
High -- | Low -- °F
--% Chance of Precip.
Yesterday
High -- | Low -- °F
Precip. -- in
Pressure 29.47 in
Visibility 6.2 miles
Clouds Few 1000 ft
Scattered Clouds 2700 ft
Mostly Cloudy 3700 ft
Windchill 11 °F
Dew Point 16 °F
Humidity 69%
Rainfall 0.00 in
Snow Depth Not available.
8:12 AM 4:35 PM
Waxing Crescent, 11% visible
METAR ENRO 110950Z 34017KT 9999 VCSH FEW010 SCT027 BKN037 M04/M09 Q0998
Pressure 29.47 in
Visibility 6.2 miles
Clouds Few 1000 ft
Scattered Clouds 2700 ft
Mostly Cloudy 3700 ft
Windchill 11 °F
Dew Point 16 °F
Humidity 69%
Rainfall 0.00 in
Snow Depth Not available.
8:12 AM 4:35 PM
Waxing Crescent, 11% visible
METAR ENRO 110950Z 34017KT 9999 VCSH FEW010 SCT027 BKN037 M04/M09 Q0998

10-Day Weather Forecast

Almanac

Astronomy

Feb. 11, 2016 Rise Set
Actual Time
Civil Twilight
Nautical Twilight
Astronomical Twilight
Moon
Length of Visible Light
Length of Day
Tomorrow will be .
, % of the Moon is Illuminated

Today's Extremes

Country Highs Country Lows

Community

WunderPhotos

Upload Photos

1,892,030 photos uploaded!

WunderBlog® & News

Nearby

Air Quality

  Air Quality AQ Index Pollutant
Not available.

Snow Depth

Station Depth Elevation

Earthquake Activity

City Distance Mag. Time & Date
Minimum magnitude displayed is 2.5.

Coastal Water Temperatures

Place Temperature

Stations

Nearby Weather Stations

Station Location Temp. Windchill Dew Point Humidity Wind Precip. Elev Updated Type